Time;durP1;ratioP1;P1;durP2;ratioP2;P2;SDS_P1;SDS_P2;PMS_P1;PMS_P2;Temp;Humidity;BMP_temperature;BMP_pressure;BME280_temperature;BME280_humidity;BME280_pressure;Samples;Min_cycle;Max_cycle;Signal;HPM_P1;HPM_P2
2023/01/18 00:00:33;;;;;;;9.82;5.05;;;;;;;6.95;44.15;98895.44;5015265;28;20088;-62
2023/01/18 00:02:58;;;;;;;13.55;6.28;;;;;;;6.92;42.79;98906.38;4997654;28;20034;-62
2023/01/18 00:05:24;;;;;;;8.98;4.45;;;;;;;6.90;42.64;98908.34;5014917;28;20109;-62
2023/01/18 01:01:40;;;;;;;9.13;4.03;;;;;;;6.68;43.72;98930.09;5014630;28;20495;-62
2023/01/18 01:06:56;;;;;;;10.98;4.47;;;;;;;6.65;43.75;98931.22;5008557;28;20048;-62
2023/01/18 01:09:23;;;;;;;7.50;4.60;;;;;;;6.63;43.56;98927.06;5017402;28;20042;-62
2023/01/18 01:28:00;;;;;;;9.40;4.28;;;;;;;6.51;43.03;98954.84;5018758;28;20084;-62
2023/01/18 01:30:26;;;;;;;6.13;4.15;;;;;;;6.51;42.85;98954.84;5016984;28;20441;-61
2023/01/18 01:32:51;;;;;;;8.23;4.38;;;;;;;6.51;43.81;98957.50;5016804;28;20041;-62
2023/01/18 01:35:17;;;;;;;11.07;4.85;;;;;;;6.49;43.22;98960.31;5017272;28;20038;-62
2023/01/18 01:37:42;;;;;;;9.88;5.35;;;;;;;6.50;44.03;98961.16;5019510;28;20048;-62
2023/01/18 01:40:08;;;;;;;7.53;4.43;;;;;;;6.46;43.31;98960.63;5020093;28;20022;-62
2023/01/18 01:42:34;;;;;;;7.65;4.10;;;;;;;6.45;43.41;98962.44;5018194;28;20057;-62
2023/01/18 01:45:00;;;;;;;8.18;5.05;;;;;;;6.50;43.75;98974.47;5017995;28;20549;-62
2023/01/18 01:47:41;;;;;;;8.57;4.93;;;;;;;6.50;43.33;98977.13;5018197;28;20096;-62
2023/01/18 01:50:14;;;;;;;7.28;4.25;;;;;;;6.48;43.86;98979.91;5018332;28;20026;-62
2023/01/18 01:52:43;;;;;;;7.68;5.10;;;;;;;6.47;44.49;98980.06;5017989;28;20494;-61
2023/01/18 01:55:20;;;;;;;8.60;4.70;;;;;;;6.45;43.51;98973.06;5017522;28;20037;-62
2023/01/18 01:58:00;;;;;;;7.80;4.43;;;;;;;6.44;43.78;98978.56;5014252;28;20041;-62
2023/01/18 02:00:26;;;;;;;10.02;4.97;;;;;;;6.45;42.96;98981.06;5014588;28;20096;-61
2023/01/18 02:03:04;;;;;;;11.23;5.15;;;;;;;6.46;44.41;98979.22;5005672;28;20041;-61
2023/01/18 02:05:31;;;;;;;9.50;5.30;;;;;;;6.45;44.31;98981.06;5024733;28;20042;-61
2023/01/18 02:07:58;;;;;;;8.43;4.97;;;;;;;6.45;44.50;98989.03;5006336;28;20034;-62
2023/01/18 02:10:24;;;;;;;9.40;4.82;;;;;;;6.47;43.07;98991.56;5018407;28;20418;-61
2023/01/18 02:12:50;;;;;;;8.63;4.88;;;;;;;6.48;44.47;98990.56;5018011;28;20052;-62
2023/01/18 02:15:16;;;;;;;25.58;5.53;;;;;;;6.48;44.51;98985.22;5016003;28;20049;-62
2023/01/18 02:17:49;;;;;;;11.05;4.97;;;;;;;6.45;44.11;98978.38;5015924;28;20033;-62
2023/01/18 02:20:39;;;;;;;9.75;5.68;;;;;;;6.49;44.47;98994.91;5017083;28;20037;-61
2023/01/18 02:23:23;;;;;;;15.73;5.53;;;;;;;6.48;43.14;98992.41;5016959;28;20164;-61
2023/01/18 02:25:58;;;;;;;11.18;5.18;;;;;;;6.48;44.12;98992.41;5015708;28;20041;-63
2023/01/18 02:28:28;;;;;;;10.98;5.00;;;;;;;6.47;43.82;98993.38;5017034;28;20075;-63
2023/01/18 02:30:58;;;;;;;12.07;5.00;;;;;;;6.45;43.51;98989.03;5015816;28;20060;-63
2023/01/18 02:33:33;;;;;;;12.60;5.25;;;;;;;6.44;43.11;98990.03;5016913;28;20050;-63
2023/01/18 02:36:03;;;;;;;15.63;5.15;;;;;;;6.39;43.88;98981.63;5016949;28;20069;-63
2023/01/18 02:38:43;;;;;;;11.52;5.40;;;;;;;6.45;44.38;98993.50;5015356;28;20458;-61
2023/01/18 02:46:29;;;;;;;12.52;4.47;;;;;;;6.43;44.47;98995.47;5015688;28;20044;-61
2023/01/18 02:46:59;;;;;;;7.82;5.50;;;;;;;6.46;44.82;98984.56;5015658;28;20033;-61
2023/01/18 02:49:30;;;;;;;8.38;4.72;;;;;;;6.50;44.56;98985.09;5015251;28;20406;-61
2023/01/18 02:52:00;;;;;;;12.93;5.28;;;;;;;6.54;43.15;98991.78;5016911;28;20033;-61
2023/01/18 02:54:26;;;;;;;13.07;5.93;;;;;;;6.54;43.46;98992.63;5016360;28;20506;-61
2023/01/18 02:56:53;;;;;;;19.58;6.18;;;;;;;6.60;43.46;99002.66;4999160;28;20065;-61
2023/01/18 02:59:32;;;;;;;21.00;6.35;;;;;;;6.63;45.03;98996.22;4998797;28;20038;-61
2023/01/18 03:02:01;;;;;;;9.63;5.43;;;;;;;6.59;44.18;98998.31;5014940;28;20463;-61
2023/01/18 03:04:43;;;;;;;18.80;6.63;;;;;;;6.67;43.65;99008.25;5015106;28;20030;-61
2023/01/18 03:07:13;;;;;;;16.35;5.45;;;;;;;6.70;44.18;99006.09;5015393;28;20405;-61
2023/01/18 03:09:40;;;;;;;13.88;5.97;;;;;;;6.73;43.88;99010.28;5014871;28;20040;-61
2023/01/18 03:12:44;;;;;;;15.27;7.50;;;;;;;6.74;44.90;99015.47;5015464;28;20061;-61
2023/01/18 03:15:15;;;;;;;18.23;6.82;;;;;;;6.75;44.00;99018.97;5016157;28;20040;-62
2023/01/18 03:17:50;;;;;;;14.18;6.65;;;;;;;6.74;43.47;99011.97;5016107;28;20042;-61
2023/01/18 03:20:22;;;;;;;16.55;6.38;;;;;;;6.80;45.15;99022.84;5014734;28;20034;-61
2023/01/18 03:25:43;;;;;;;13.93;6.45;;;;;;;6.85;45.25;99027.72;5015026;28;20409;-62
2023/01/18 03:34:00;;;;;;;16.77;6.68;;;;;;;6.88;43.98;99012.28;5014633;28;20041;-62
2023/01/18 03:36:28;;;;;;;16.50;5.35;;;;;;;6.90;44.26;99015.63;5015814;28;20041;-62
2023/01/18 03:38:59;;;;;;;17.40;6.63;;;;;;;6.97;44.04;99026.53;5015715;28;20116;-62
2023/01/18 03:41:30;;;;;;;10.30;7.10;;;;;;;7.00;44.92;99031.53;5014491;28;20041;-62
2023/01/18 03:43:58;;;;;;;11.68;5.57;;;;;;;6.97;44.72;99029.19;4997874;28;20521;-62
2023/01/18 03:46:25;;;;;;;14.05;6.25;;;;;;;6.99;43.73;99040.50;5014121;28;20029;-62
2023/01/18 03:48:50;;;;;;;13.55;6.22;;;;;;;6.91;44.69;99027.13;5014558;28;20041;-62
2023/01/18 03:51:51;;;;;;;8.35;5.68;;;;;;;6.99;44.45;99035.19;5014255;28;20038;-62
2023/01/18 03:55:02;;;;;;;16.08;5.20;;;;;;;6.95;44.36;99031.97;5000705;28;20041;-62
2023/01/18 03:57:39;;;;;;;8.63;5.85;;;;;;;6.92;44.45;99029.63;5013124;28;20042;-62
2023/01/18 04:00:07;;;;;;;16.80;7.18;;;;;;;6.93;44.33;99036.63;4997811;28;20075;-63
2023/01/18 04:02:32;;;;;;;16.02;6.28;;;;;;;6.92;44.41;99040.25;5001373;28;20042;-62
2023/01/18 04:05:02;;;;;;;13.88;6.88;;;;;;;6.92;44.99;99039.44;4996899;28;20042;-62
2023/01/18 04:07:31;;;;;;;12.75;6.07;;;;;;;6.94;43.98;99043.63;4997133;28;20034;-62
2023/01/18 04:09:59;;;;;;;16.33;6.78;;;;;;;6.91;44.14;99038.59;5013369;28;20029;-61
2023/01/18 04:12:25;;;;;;;12.27;6.10;;;;;;;6.99;44.29;99052.00;4980776;28;20042;-62
2023/01/18 04:14:51;;;;;;;11.82;5.78;;;;;;;7.01;45.57;99050.00;4995461;28;20048;-61
2023/01/18 04:17:17;;;;;;;24.40;7.95;;;;;;;7.05;45.02;99063.88;4996461;28;20070;-61
2023/01/18 04:19:42;;;;;;;17.65;6.07;;;;;;;7.07;44.69;99063.69;4996285;28;20069;-62
2023/01/18 04:22:08;;;;;;;24.55;6.63;;;;;;;7.12;45.03;99067.59;5012959;28;20058;-62
2023/01/18 04:24:34;;;;;;;12.15;5.90;;;;;;;7.15;44.40;99061.97;4995898;28;20042;-62
2023/01/18 04:26:59;;;;;;;12.70;6.13;;;;;;;7.18;44.38;99055.50;4995992;28;20534;-62
2023/01/18 04:29:25;;;;;;;15.13;5.85;;;;;;;7.16;45.33;99058.31;4996183;28;20076;-61
2023/01/18 04:31:50;;;;;;;12.98;6.30;;;;;;;7.15;45.47;99056.63;5011914;28;20560;-62
2023/01/18 04:34:15;;;;;;;8.25;5.32;;;;;;;7.19;44.69;99058.03;5014710;28;20033;-61
2023/01/18 04:36:41;;;;;;;11.73;6.82;;;;;;;7.22;45.31;99079.03;5014454;28;20048;-61
2023/01/18 04:39:06;;;;;;;11.50;6.43;;;;;;;7.23;44.43;99069.22;5014300;28;20121;-61
2023/01/18 04:41:32;;;;;;;11.95;5.55;;;;;;;7.24;44.18;99077.03;5014341;28;20180;-62
2023/01/18 04:43:57;;;;;;;11.07;5.35;;;;;;;7.20;45.26;99066.84;5013005;28;20044;-62
2023/01/18 04:46:23;;;;;;;13.77;5.82;;;;;;;7.22;45.49;99078.19;5012951;28;20509;-62
2023/01/18 04:48:50;;;;;;;18.95;6.43;;;;;;;7.21;45.38;99082.66;5013195;28;20097;-61
2023/01/18 04:51:16;;;;;;;11.95;6.57;;;;;;;7.21;44.22;99081.81;5013147;28;20044;-62
2023/01/18 04:53:42;;;;;;;14.57;6.07;;;;;;;7.21;45.19;99087.16;5013093;28;20034;-62
2023/01/18 04:56:08;;;;;;;16.17;6.57;;;;;;;7.21;45.41;99090.66;5014190;28;20053;-62
2023/01/18 04:58:34;;;;;;;12.25;5.60;;;;;;;7.23;44.34;99090.53;5014278;28;20029;-61
2023/01/18 05:01:04;;;;;;;19.35;6.75;;;;;;;7.24;44.14;99086.84;4996701;28;20050;-62
2023/01/18 05:03:29;;;;;;;13.30;6.70;;;;;;;7.25;45.19;99092.03;4996335;28;20045;-61
2023/01/18 05:05:55;;;;;;;15.68;5.38;;;;;;;7.26;45.51;99099.00;5013054;28;20038;-62
2023/01/18 05:08:21;;;;;;;13.05;6.15;;;;;;;7.27;45.50;99102.53;5014209;28;20048;-61
2023/01/18 05:10:46;;;;;;;12.27;5.97;;;;;;;7.27;44.48;99102.53;5012664;28;20120;-61
2023/01/18 05:13:11;;;;;;;20.52;7.63;;;;;;;7.27;45.57;99119.34;5014184;28;20068;-61
2023/01/18 05:15:37;;;;;;;10.80;5.70;;;;;;;7.25;45.39;99110.69;5009357;28;20049;-62
2023/01/18 05:18:02;;;;;;;21.92;6.10;;;;;;;7.24;44.11;99116.13;5013770;28;20517;-62
2023/01/18 05:20:28;;;;;;;13.63;6.07;;;;;;;7.22;45.55;99110.97;5013918;28;20038;-62
2023/01/18 05:22:53;;;;;;;22.77;6.63;;;;;;;7.22;45.48;99113.63;5013760;28;20033;-62
2023/01/18 05:25:18;;;;;;;10.40;6.07;;;;;;;7.21;45.18;99117.28;5014164;28;20034;-63
2023/01/18 05:27:44;;;;;;;12.88;6.43;;;;;;;7.24;44.18;99116.97;5012283;28;20395;-61
2023/01/18 05:30:10;;;;;;;8.68;5.38;;;;;;;7.22;44.58;99121.63;5013792;28;20042;-62
2023/01/18 05:32:35;;;;;;;19.77;6.65;;;;;;;7.26;44.40;99125.66;5012463;28;20040;-61
2023/01/18 05:35:04;;;;;;;9.05;5.65;;;;;;;7.27;44.26;99135.31;5013344;28;20038;-62
2023/01/18 05:37:29;;;;;;;11.18;5.57;;;;;;;7.29;44.31;99137.81;5013673;28;20034;-62
2023/01/18 05:39:55;;;;;;;11.07;5.95;;;;;;;7.29;45.36;99146.66;5013695;28;20482;-62
2023/01/18 05:42:21;;;;;;;16.77;6.50;;;;;;;7.30;44.53;99140.34;5013584;28;20048;-62
2023/01/18 05:44:46;;;;;;;15.90;5.35;;;;;;;7.31;44.96;99147.38;5013550;28;20088;-61
2023/01/18 05:47:11;;;;;;;16.40;6.40;;;;;;;7.31;45.32;99147.38;5012458;28;20536;-61
2023/01/18 05:49:37;;;;;;;18.35;6.88;;;;;;;7.33;45.68;99150.72;5012024;28;20044;-62
2023/01/18 05:52:03;;;;;;;15.55;5.68;;;;;;;7.35;44.31;99153.19;5014227;28;20037;-61
2023/01/18 05:54:29;;;;;;;13.00;5.97;;;;;;;7.36;44.23;99155.72;5013396;28;20086;-62
2023/01/18 05:56:55;;;;;;;11.57;6.03;;;;;;;7.38;44.21;99161.75;5013533;28;20081;-61
2023/01/18 05:59:21;;;;;;;13.82;5.72;;;;;;;7.40;45.32;99161.56;5018856;28;20037;-61
2023/01/18 06:01:46;;;;;;;14.55;6.50;;;;;;;7.40;45.26;99167.75;5016234;28;20042;-61
2023/01/18 06:04:12;;;;;;;14.50;5.57;;;;;;;7.42;44.53;99170.28;5013903;28;20034;-62
2023/01/18 06:06:37;;;;;;;11.57;5.95;;;;;;;7.44;44.34;99162.97;5013372;28;20057;-61
2023/01/18 06:09:03;;;;;;;21.65;5.90;;;;;;;7.41;45.03;99166.75;4995899;28;20063;-62
2023/01/18 06:11:28;;;;;;;13.52;6.40;;;;;;;7.48;44.46;99177.66;5011930;28;20473;-62
2023/01/18 06:13:54;;;;;;;12.07;6.53;;;;;;;7.49;44.67;99177.50;5011022;28;20061;-61
2023/01/18 06:16:19;;;;;;;12.35;5.75;;;;;;;7.50;44.68;99181.84;4996062;28;20473;-62
2023/01/18 06:18:45;;;;;;;19.85;7.03;;;;;;;7.50;44.98;99179.19;5013283;28;20044;-61
2023/01/18 06:21:10;;;;;;;12.07;5.47;;;;;;;7.47;45.80;99174.16;4995444;28;20044;-62
2023/01/18 06:23:36;;;;;;;11.27;5.15;;;;;;;7.51;44.30;99177.34;5011370;28;20053;-62
2023/01/18 06:26:01;;;;;;;14.73;5.57;;;;;;;7.49;44.87;99182.84;5013383;28;20060;-62
2023/01/18 06:28:27;;;;;;;14.90;6.00;;;;;;;7.50;45.14;99189.84;5011150;28;20040;-62
2023/01/18 06:30:53;;;;;;;10.32;5.78;;;;;;;7.50;44.66;99189.84;5013617;28;20483;-62
2023/01/18 06:33:19;;;;;;;19.55;5.65;;;;;;;7.46;44.54;99193.78;5013203;28;20076;-62
2023/01/18 06:35:44;;;;;;;13.00;6.10;;;;;;;7.50;45.71;99197.00;5012144;28;20042;-62
2023/01/18 06:38:10;;;;;;;13.02;6.03;;;;;;;7.45;45.29;99186.78;5013266;28;20049;-62
2023/01/18 06:40:36;;;;;;;13.57;5.75;;;;;;;7.50;45.31;99200.50;5013425;28;20026;-62
2023/01/18 06:43:02;;;;;;;15.80;6.63;;;;;;;7.50;45.14;99205.84;5012426;28;20045;-62
2023/01/18 06:45:30;;;;;;;12.95;5.82;;;;;;;7.51;45.46;99212.81;4994205;28;20046;-62
2023/01/18 06:47:56;;;;;;;10.27;5.72;;;;;;;7.52;44.34;99219.84;5014422;28;20040;-62
2023/01/18 06:50:21;;;;;;;13.30;5.40;;;;;;;7.51;44.63;99211.97;5017407;28;20034;-62
2023/01/18 06:52:47;;;;;;;13.27;5.53;;;;;;;7.52;45.50;99216.31;5014013;28;20183;-62
2023/01/18 06:55:13;;;;;;;12.73;6.28;;;;;;;7.51;44.46;99217.31;5016954;28;20052;-62
2023/01/18 06:57:39;;;;;;;8.68;5.72;;;;;;;7.51;44.62;99233.28;5016602;28;20042;-62
2023/01/18 07:00:06;;;;;;;15.20;6.80;;;;;;;7.50;44.30;99248.47;4998693;28;20050;-62
2023/01/18 07:02:32;;;;;;;14.32;6.30;;;;;;;7.50;45.14;99251.13;5016846;28;20045;-62
2023/01/18 07:04:58;;;;;;;10.23;5.00;;;;;;;7.41;45.29;99238.69;5016568;28;20401;-62
2023/01/18 07:07:23;;;;;;;10.23;5.50;;;;;;;7.49;44.50;99251.25;4998837;28;20036;-62
2023/01/18 07:09:48;;;;;;;11.05;5.68;;;;;;;7.47;45.58;99262.06;5016780;28;20079;-62
2023/01/18 07:12:14;;;;;;;18.08;5.72;;;;;;;7.43;44.13;99257.16;5015259;28;20084;-62
2023/01/18 07:14:39;;;;;;;11.45;6.82;;;;;;;7.40;44.45;99263.63;5016121;28;20068;-62
2023/01/18 07:17:05;;;;;;;13.57;6.78;;;;;;;7.35;44.43;99257.91;5014883;28;20046;-62
2023/01/18 07:19:30;;;;;;;22.73;6.72;;;;;;;7.31;43.98;99264.53;5015916;28;20060;-62
2023/01/18 07:21:56;;;;;;;16.88;6.88;;;;;;;7.28;44.52;99275.47;5015896;28;20544;-62
2023/01/18 07:24:21;;;;;;;17.45;5.90;;;;;;;7.28;44.40;99277.28;5014594;28;20088;-62
2023/01/18 07:26:47;;;;;;;13.93;6.90;;;;;;;7.28;44.44;99280.81;5015912;28;20088;-62
2023/01/18 07:29:12;;;;;;;12.43;6.00;;;;;;;7.30;44.25;99284.16;5014627;28;20391;-62
2023/01/18 07:31:39;;;;;;;13.63;5.93;;;;;;;7.31;45.06;99280.50;5014428;28;20160;-62
2023/01/18 07:34:04;;;;;;;17.40;6.28;;;;;;;7.29;45.61;99284.28;5016015;28;20018;-62
2023/01/18 07:36:30;;;;;;;13.00;6.90;;;;;;;7.31;45.49;99291.16;5014315;28;20049;-62
2023/01/18 07:38:55;;;;;;;13.15;5.78;;;;;;;7.32;44.35;99295.50;5015714;28;20044;-61
2023/01/18 07:41:22;;;;;;;17.00;7.60;;;;;;;7.31;44.38;99295.66;5015550;28;20060;-61
2023/01/18 07:43:47;;;;;;;13.45;7.00;;;;;;;7.33;45.04;99302.50;5014483;28;20044;-61
2023/01/18 07:46:15;;;;;;;13.02;6.80;;;;;;;7.33;45.90;99299.84;4998283;28;20128;-61
2023/01/18 07:48:41;;;;;;;14.57;6.05;;;;;;;7.31;44.75;99298.31;5015484;28;20049;-61
2023/01/18 07:51:08;;;;;;;14.13;5.90;;;;;;;7.34;44.46;99314.81;5015421;28;20453;-62
2023/01/18 07:53:35;;;;;;;19.30;6.53;;;;;;;7.34;45.17;99317.47;5015249;28;20049;-61
2023/01/18 07:56:10;;;;;;;14.45;6.63;;;;;;;7.34;44.17;99306.81;5015796;28;20050;-62
2023/01/18 07:58:35;;;;;;;12.43;6.88;;;;;;;7.35;45.24;99303.19;5021069;28;20084;-62
2023/01/18 08:01:05;;;;;;;20.95;7.28;;;;;;;7.41;45.45;99301.75;5015795;28;20053;-62
2023/01/18 08:03:31;;;;;;;13.95;6.60;;;;;;;7.43;45.51;99316.59;5013919;28;20459;-62
2023/01/18 08:05:58;;;;;;;19.20;7.25;;;;;;;7.46;45.26;99313.66;5013677;28;20057;-62
2023/01/18 08:08:24;;;;;;;15.85;8.00;;;;;;;7.49;44.89;99316.03;5013940;28;20045;-62
2023/01/18 08:10:53;;;;;;;24.70;8.55;;;;;;;7.54;44.07;99328.91;5013752;28;20439;-62
2023/01/18 08:13:19;;;;;;;16.83;6.88;;;;;;;7.57;44.41;99323.28;5013895;28;20068;-61
2023/01/18 08:15:44;;;;;;;28.55;7.30;;;;;;;7.61;44.79;99336.19;5014801;28;20045;-61
2023/01/18 08:18:11;;;;;;;11.18;7.00;;;;;;;7.68;44.14;99335.59;5015047;28;20042;-61
2023/01/18 08:20:37;;;;;;;13.05;6.43;;;;;;;7.70;44.94;99333.59;5014865;28;20038;-61
2023/01/18 08:23:02;;;;;;;11.77;6.47;;;;;;;7.71;44.35;99333.44;5014681;28;20038;-61
2023/01/18 08:25:29;;;;;;;11.95;5.93;;;;;;;7.78;44.94;99344.38;5015049;28;20026;-61
2023/01/18 08:27:57;;;;;;;19.25;8.25;;;;;;;7.79;44.92;99349.53;5015339;28;20403;-61
2023/01/18 08:30:26;;;;;;;18.75;6.43;;;;;;;7.84;45.44;99347.28;5014394;28;20048;-61
2023/01/18 08:32:56;;;;;;;21.13;9.25;;;;;;;7.90;45.13;99352.00;5014448;28;20048;-61
2023/01/18 08:35:22;;;;;;;14.38;6.22;;;;;;;7.94;44.24;99352.56;5013343;28;20053;-61
2023/01/18 08:37:47;;;;;;;24.20;8.80;;;;;;;7.97;44.88;99362.91;5013344;28;20042;-61
2023/01/18 08:40:13;;;;;;;27.60;8.30;;;;;;;8.01;45.09;99365.13;5014508;28;20414;-61
2023/01/18 08:42:38;;;;;;;18.55;8.40;;;;;;;8.04;44.93;99375.50;5014499;28;20042;-61
2023/01/18 08:45:04;;;;;;;18.45;7.65;;;;;;;8.07;44.93;99371.69;5014346;28;20490;-61
2023/01/18 08:47:29;;;;;;;14.05;6.72;;;;;;;8.13;45.20;99374.59;5014285;28;20045;-61
2023/01/18 08:49:55;;;;;;;15.35;6.38;;;;;;;8.16;44.39;99373.47;5014083;28;20072;-62
2023/01/18 08:52:21;;;;;;;13.43;5.97;;;;;;;8.15;45.08;99372.63;5014915;28;20042;-61
2023/01/18 08:54:46;;;;;;;15.15;7.30;;;;;;;8.18;44.25;99379.47;5014060;28;20494;-61
2023/01/18 08:57:11;;;;;;;17.13;6.18;;;;;;;8.19;44.40;99383.84;5014407;28;20087;-62
2023/01/18 08:59:37;;;;;;;15.00;6.78;;;;;;;8.21;44.84;99389.84;5014085;28;20417;-61
2023/01/18 09:02:02;;;;;;;21.45;6.85;;;;;;;8.19;44.42;99389.16;5013800;28;20041;-62
2023/01/18 09:04:28;;;;;;;15.50;6.22;;;;;;;8.25;44.58;99393.91;5014241;28;20038;-61
2023/01/18 09:06:54;;;;;;;14.02;6.45;;;;;;;8.29;43.95;99397.97;5013276;28;20122;-62
2023/01/18 09:09:19;;;;;;;12.60;6.65;;;;;;;8.33;44.48;99402.03;5013918;28;20193;-62
2023/01/18 09:11:44;;;;;;;20.27;7.28;;;;;;;8.39;44.66;99400.59;5013136;28;20034;-61
2023/01/18 09:14:10;;;;;;;23.77;9.65;;;;;;;8.34;44.21;99393.06;5013839;28;20129;-61
2023/01/18 09:16:35;;;;;;;17.90;8.43;;;;;;;8.49;44.66;99406.69;5012487;28;20037;-61
2023/01/18 09:19:05;;;;;;;14.77;5.55;;;;;;;8.53;44.06;99410.75;5014274;28;20032;-61
2023/01/18 09:21:30;;;;;;;16.17;5.35;;;;;;;8.53;44.79;99414.25;5013709;28;20438;-62
2023/01/18 09:23:55;;;;;;;10.13;5.25;;;;;;;8.54;45.02;99420.44;5013704;28;20048;-61
2023/01/18 09:26:21;;;;;;;16.25;6.38;;;;;;;8.55;44.77;99427.44;5012305;28;20449;-61
2023/01/18 09:28:50;;;;;;;16.17;7.45;;;;;;;8.57;45.00;99428.97;5012245;28;20153;-61
2023/01/18 09:31:15;;;;;;;13.75;6.55;;;;;;;8.63;44.60;99431.03;5012705;28;20396;-61
2023/01/18 09:33:41;;;;;;;25.67;9.95;;;;;;;8.69;44.24;99435.78;5013327;28;20030;-61
2023/01/18 09:36:08;;;;;;;10.82;6.03;;;;;;;8.72;44.56;99435.47;5013394;28;20065;-62
2023/01/18 09:38:35;;;;;;;14.68;6.80;;;;;;;8.79;44.55;99433.84;5012276;28;20054;-62
2023/01/18 09:41:02;;;;;;;14.13;6.72;;;;;;;8.87;44.37;99437.63;5012163;28;20037;-62
2023/01/18 09:43:33;;;;;;;13.55;7.07;;;;;;;8.97;44.83;99438.38;5012176;28;20026;-61
2023/01/18 09:46:00;;;;;;;14.15;7.38;;;;;;;9.08;44.98;99446.97;5012027;28;20037;-61
2023/01/18 09:48:36;;;;;;;13.55;7.10;;;;;;;9.22;44.20;99448.28;5012137;28;20038;-62
2023/01/18 09:51:07;;;;;;;14.95;7.10;;;;;;;9.41;44.46;99450.75;4996052;28;20041;-62
2023/01/18 09:54:01;;;;;;;13.57;5.93;;;;;;;9.64;44.08;99457.28;5013197;28;20096;-62
2023/01/18 09:56:39;;;;;;;16.60;6.32;;;;;;;9.86;44.09;99459.41;5019581;28;20038;-62
2023/01/18 09:59:19;;;;;;;18.20;7.85;;;;;;;10.12;43.77;99463.91;5012050;28;20030;-62
2023/01/18 10:01:45;;;;;;;15.50;6.25;;;;;;;10.30;44.00;99462.03;5013009;28;20038;-62
2023/01/18 10:04:24;;;;;;;11.85;6.70;;;;;;;10.49;44.14;99451.91;5012381;28;20034;-62
2023/01/18 10:07:06;;;;;;;11.02;7.30;;;;;;;10.73;43.39;99451.09;5009103;28;20043;-62
2023/01/18 10:09:39;;;;;;;13.67;6.03;;;;;;;11.06;43.92;99452.00;5011887;28;20414;-62
2023/01/18 10:12:20;;;;;;;11.98;5.95;;;;;;;11.39;43.88;99448.31;5011730;28;20279;-62
2023/01/18 10:15:09;;;;;;;12.48;5.55;;;;;;;11.77;43.46;99452.16;5011790;28;20038;-62
2023/01/18 10:17:41;;;;;;;12.13;6.15;;;;;;;12.23;41.90;99448.66;5011942;28;20038;-65
2023/01/18 10:20:35;;;;;;;13.50;5.93;;;;;;;12.62;42.70;99454.03;5012980;28;20049;-63
2023/01/18 10:23:22;;;;;;;16.77;5.72;;;;;;;12.97;41.52;99455.34;5014387;28;20034;-65
2023/01/18 10:25:53;;;;;;;10.15;5.22;;;;;;;13.34;40.80;99463.50;5016935;28;20128;-65
2023/01/18 10:28:25;;;;;;;9.82;6.45;;;;;;;13.83;40.52;99457.69;5016214;28;20037;-64
2023/01/18 10:31:16;;;;;;;13.73;6.17;;;;;;;14.45;39.97;99452.81;5012780;28;20049;-65
2023/01/18 10:33:43;;;;;;;11.43;5.32;;;;;;;14.91;40.76;99453.34;5015814;28;20510;-65
2023/01/18 10:36:21;;;;;;;14.18;5.35;;;;;;;15.30;40.45;99453.75;5015551;28;20406;-65
2023/01/18 10:38:49;;;;;;;10.40;6.05;;;;;;;15.56;38.83;99448.63;5016590;28;20037;-66
2023/01/18 10:41:19;;;;;;;12.27;6.07;;;;;;;15.63;39.82;99460.28;5015556;28;20410;-65
2023/01/18 10:43:45;;;;;;;13.57;5.80;;;;;;;15.94;39.74;99456.41;5016923;28;20034;-65
2023/01/18 10:46:15;;;;;;;18.83;9.32;;;;;;;16.24;39.67;99464.09;5016873;28;20555;-65
2023/01/18 10:48:45;;;;;;;13.15;7.25;;;;;;;16.55;39.92;99455.53;5016464;28;20041;-65
2023/01/18 10:51:33;;;;;;;9.35;4.70;;;;;;;16.80;38.57;99462.09;5016517;28;20034;-65
2023/01/18 10:54:21;;;;;;;11.25;5.15;;;;;;;17.00;39.13;99469.44;5014862;28;20065;-65
2023/01/18 10:56:46;;;;;;;10.48;5.80;;;;;;;17.18;38.01;99466.97;5016177;28;20502;-65
2023/01/18 10:59:28;;;;;;;8.52;5.88;;;;;;;17.36;38.00;99467.22;5016370;28;20084;-66
2023/01/18 11:01:56;;;;;;;15.00;7.15;;;;;;;17.53;38.47;99468.50;5014904;28;20050;-66
2023/01/18 11:04:27;;;;;;;13.00;7.07;;;;;;;17.71;37.56;99463.31;5016523;28;20057;-66
2023/01/18 11:07:02;;;;;;;10.02;5.97;;;;;;;17.87;37.14;99473.72;5015176;28;20053;-65
2023/01/18 11:09:48;;;;;;;10.00;5.57;;;;;;;18.01;37.26;99467.25;5016159;28;20501;-66
2023/01/18 11:12:41;;;;;;;12.90;6.50;;;;;;;18.13;36.98;99472.03;5015001;28;20044;-66
2023/01/18 11:15:13;;;;;;;12.50;7.10;;;;;;;18.25;37.55;99462.22;5016093;28;20038;-65
2023/01/18 11:17:59;;;;;;;10.80;5.93;;;;;;;18.33;37.09;99472.81;5016086;28;20030;-66
2023/01/18 11:20:44;;;;;;;10.57;5.25;;;;;;;18.41;36.99;99469.88;5015732;28;20034;-65
2023/01/18 11:23:12;;;;;;;7.70;4.47;;;;;;;18.28;37.72;99464.50;5016052;28;20045;-66
2023/01/18 11:25:45;;;;;;;14.88;5.55;;;;;;;18.34;37.42;99475.31;5015814;28;20401;-66
2023/01/18 11:28:34;;;;;;;8.48;4.88;;;;;;;18.45;36.97;99473.84;5016189;28;20505;-66
2023/01/18 11:31:07;;;;;;;8.15;5.13;;;;;;;18.50;36.65;99468.66;5015107;28;20574;-66
2023/01/18 11:33:33;;;;;;;7.50;5.05;;;;;;;18.53;36.97;99477.19;5013537;28;20439;-66
2023/01/18 11:36:01;;;;;;;16.98;5.60;;;;;;;18.53;37.04;99468.22;5015524;28;20124;-65
2023/01/18 11:38:31;;;;;;;10.48;5.57;;;;;;;18.56;36.66;99467.78;5013230;28;20038;-66
2023/01/18 11:41:17;;;;;;;9.07;4.68;;;;;;;18.55;36.61;99477.81;5015404;28;20040;-66
2023/01/18 11:44:10;;;;;;;12.27;5.40;;;;;;;18.48;36.25;99476.97;5014493;28;20045;-66
2023/01/18 11:46:40;;;;;;;8.18;4.18;;;;;;;18.47;36.84;99474.47;5012145;28;20033;-66
2023/01/18 11:49:19;;;;;;;6.10;4.28;;;;;;;18.41;36.33;99475.31;5015812;28;20113;-65
2023/01/18 11:51:50;;;;;;;10.85;4.60;;;;;;;18.38;36.99;99476.56;5015432;28;20034;-66
2023/01/18 11:54:45;;;;;;;10.07;4.65;;;;;;;18.34;36.96;99485.34;5018570;28;20022;-66
2023/01/18 11:57:11;;;;;;;5.53;3.45;;;;;;;18.31;36.67;99475.75;5014724;28;20510;-65
2023/01/18 11:59:41;;;;;;;7.18;3.80;;;;;;;18.30;36.14;99479.50;5014130;28;20069;-66
2023/01/18 12:02:31;;;;;;;8.30;4.47;;;;;;;18.28;36.50;99470.75;5014138;28;20061;-66
2023/01/18 12:05:14;;;;;;;8.45;4.22;;;;;;;18.19;35.98;99477.44;5015189;28;20456;-65
2023/01/18 12:08:09;;;;;;;5.88;3.97;;;;;;;18.18;36.55;99485.78;5015028;28;20029;-66
2023/01/18 12:10:40;;;;;;;6.13;4.60;;;;;;;18.15;36.06;99481.63;5015097;28;20509;-66
2023/01/18 12:13:21;;;;;;;9.48;4.45;;;;;;;18.13;36.20;99482.88;5015582;28;20057;-66
2023/01/18 12:16:16;;;;;;;6.47;4.35;;;;;;;18.10;35.88;99483.28;5013565;28;20034;-66
2023/01/18 12:19:06;;;;;;;11.07;4.65;;;;;;;18.06;36.04;99487.47;5014816;28;20144;-65
2023/01/18 12:21:35;;;;;;;5.50;3.90;;;;;;;17.98;36.52;99492.06;5013812;28;20038;-66
2023/01/18 12:24:33;;;;;;;7.47;3.95;;;;;;;17.96;36.49;99487.88;5013715;28;20034;-66
2023/01/18 12:27:04;;;;;;;11.00;4.07;;;;;;;17.89;36.65;99482.50;5013368;28;20117;-65
2023/01/18 12:29:56;;;;;;;7.07;4.18;;;;;;;17.91;36.36;99491.25;5013262;28;20509;-66
2023/01/18 12:32:44;;;;;;;11.23;6.45;;;;;;;17.83;36.10;99488.75;5014662;28;20037;-66
2023/01/18 12:35:13;;;;;;;8.88;3.85;;;;;;;17.79;36.31;99492.06;5013329;28;20045;-66
2023/01/18 12:38:00;;;;;;;9.52;4.38;;;;;;;17.77;36.46;99494.16;5006948;28;20096;-66
2023/01/18 12:40:35;;;;;;;12.55;4.22;;;;;;;17.77;35.78;99495.00;5025229;28;20029;-66
2023/01/18 12:43:10;;;;;;;4.97;3.58;;;;;;;17.73;36.35;99493.72;5013711;28;20096;-66
2023/01/18 12:45:45;;;;;;;5.78;3.80;;;;;;;17.71;36.23;99490.41;5014119;28;20129;-66
2023/01/18 12:48:49;;;;;;;5.10;3.50;;;;;;;17.71;36.30;99490.41;5013189;28;20042;-66
2023/01/18 12:51:17;;;;;;;7.80;3.63;;;;;;;17.67;36.78;99491.84;5012920;28;20092;-66
2023/01/18 12:53:59;;;;;;;6.63;2.95;;;;;;;17.66;36.23;99483.94;5013126;28;20022;-66
2023/01/18 12:56:31;;;;;;;15.43;3.92;;;;;;;17.61;36.37;99483.72;5014443;28;20092;-66
2023/01/18 12:59:03;;;;;;;7.85;3.33;;;;;;;17.58;36.32;99484.16;5014142;28;20482;-66
2023/01/18 13:01:42;;;;;;;4.97;2.70;;;;;;;17.53;36.34;99482.03;5012871;28;20431;-66
2023/01/18 13:04:14;;;;;;;7.13;3.00;;;;;;;17.53;36.62;99478.50;5013464;28;20026;-66
2023/01/18 13:06:40;;;;;;;4.25;3.08;;;;;;;17.53;35.91;99481.19;4980985;28;20042;-66
2023/01/18 13:09:15;;;;;;;5.68;2.92;;;;;;;17.50;36.26;99477.03;5014012;28;20042;-66
2023/01/18 13:11:42;;;;;;;7.95;3.47;;;;;;;17.49;36.06;99486.19;5012722;28;20030;-66
2023/01/18 13:14:08;;;;;;;9.38;2.85;;;;;;;17.47;36.49;99483.66;5012877;28;20053;-66